Aérodrome :
LOGIN :

S'inscrire | Disclaimer

   EN    FR    IT 

 










Légende :    VFR   VFR Marginal   IFR   IFR Intensif   IFR Très Intensif
Visi : 
Plafond : 
>= 8 km
>= 3000ft
5 à 8 km
1000 à 3000 ft
1500m à 5 km
500 à 1000 ft
800 à 1500m
200 à 500 ft
< 800m
< 200 ft
Symboles :   Orages  Brouillard  Fortes neiges  Fortes précipitations  Vent > 20 kt
SIGMETs :   Divers  Orages  Givrage  Turbulence  Onde Orograph.  Cendres Volcan.







- Altitude de l'aérodrome : 53 ft
- Code IATA : HAM


EDDH - Hamburg

DERNIER METAR :
  • 202350Z 10013KT 060V120 9999 FEW021 BKN023 03/M02 Q1018 TEMPO 10015G25KT

METARs EXPIRÉS :
  • 202320Z 10013KT 9999 FEW021 OVC023 03/M02 Q1018 TEMPO 10015G25KT
  • 202250Z 10012KT 060V120 9999 FEW021 BKN023 03/M02 Q1018 TEMPO 10015G25KT
  • 202220Z 10014KT 070V130 9999 FEW022 BKN025 03/M02 Q1018 TEMPO 10015G25KT
  • 202150Z 10014KT 9999 FEW022 SCT025 03/M02 Q1017 TEMPO 10015G25KT
  • 202120Z 09015G26KT 050V130 9999 FEW022 BKN025 03/M02 Q1017 NOSIG
  • 202050Z 10015KT 9999 OVC025 03/M02 Q1017 TEMPO 10015G25KT

TAF TAF EDDH
Valide du 21 à 00h jusqu'au 22 à 06h UTC


202300Z 2100/2206 10013G23KT 9999 BKN025
PROB30
TEMPO 2100/2110 BKN014
BECMG 2120/2122 BKN014
Pas de NOTAMs connus pour ce terrain.



MET'MAP, la Météo Aéronautique d'un coup d'oeil ! - Copyright ORBIFLY Décembre 2007 - Disclaimer

ORBIFLY MET'MAP TEAM :

Programmation & Développement : Alexandra Zaïnal
Conception & Développement : Baudouin d'Aumeries
Co-Programmation & Développement : Marc-Olivier Méhu
Soutien technique & logistique : Manuel Goepfert

Contact : metmap@orbifly.com




SOURCES & CREDITS :

   NOAA